createdAt,value
2017-07-30T00:02:20.886Z,21.80
2017-07-30T00:04:49.966Z,21.80
2017-07-30T00:07:18.459Z,21.80
2017-07-30T00:09:47.571Z,21.80
2017-07-30T00:12:16.629Z,21.80
2017-07-30T00:14:45.034Z,21.70
2017-07-30T00:17:13.383Z,21.80
2017-07-30T00:19:41.706Z,21.70
2017-07-30T00:22:10.013Z,21.70
2017-07-30T00:24:38.443Z,21.70
2017-07-30T00:27:07.503Z,21.70
2017-07-30T00:29:36.022Z,21.70
2017-07-30T00:32:04.370Z,21.80
2017-07-30T00:34:32.877Z,21.80
2017-07-30T00:37:01.214Z,21.80
2017-07-30T00:39:29.517Z,21.80
2017-07-30T00:41:58.933Z,22.00
2017-07-30T00:44:27.534Z,21.90
2017-07-30T00:46:55.856Z,22.00
2017-07-30T00:49:24.184Z,22.00
2017-07-30T00:51:52.553Z,21.90
2017-07-30T00:54:21.679Z,22.00
2017-07-30T00:56:50.001Z,21.90
2017-07-30T00:59:18.402Z,21.90
2017-07-30T01:01:46.786Z,21.80
2017-07-30T01:04:15.227Z,21.80
2017-07-30T01:06:43.499Z,21.80
2017-07-30T01:09:11.838Z,21.80
2017-07-30T01:11:40.185Z,21.70
2017-07-30T01:14:09.484Z,21.70
2017-07-30T01:16:37.805Z,21.70
2017-07-30T01:19:06.466Z,21.70
2017-07-30T01:21:35.134Z,21.80
2017-07-30T01:24:03.523Z,21.70
2017-07-30T01:26:32.702Z,21.80
2017-07-30T01:29:01.761Z,21.80
2017-07-30T01:31:30.098Z,21.80
2017-07-30T01:33:58.450Z,21.90
2017-07-30T01:36:27.783Z,22.00
2017-07-30T01:38:56.133Z,22.00
2017-07-30T01:41:24.409Z,22.10
2017-07-30T01:43:52.898Z,22.10
2017-07-30T01:46:21.194Z,22.20
2017-07-30T01:48:49.543Z,22.20
2017-07-30T01:51:18.631Z,22.20
2017-07-30T01:53:47.731Z,22.20
2017-07-30T01:56:16.806Z,22.20
2017-07-30T01:58:45.316Z,22.20
2017-07-30T02:01:14.373Z,22.20
2017-07-30T02:03:42.682Z,22.20
2017-07-30T02:06:11.014Z,22.20
2017-07-30T02:08:39.337Z,22.20
2017-07-30T02:11:08.428Z,22.30
2017-07-30T02:13:36.798Z,22.20
2017-07-30T02:16:05.095Z,22.30
2017-07-30T02:18:34.143Z,22.30
2017-07-30T02:21:02.555Z,22.30
2017-07-30T02:23:31.622Z,22.40
2017-07-30T02:26:00.136Z,22.40
2017-07-30T02:28:29.230Z,22.40
2017-07-30T02:30:57.541Z,22.30
2017-07-30T02:33:25.977Z,22.40
2017-07-30T02:35:54.495Z,22.40
2017-07-30T02:38:22.834Z,22.30
2017-07-30T02:40:51.127Z,22.40
2017-07-30T02:43:20.311Z,22.40
2017-07-30T02:45:49.374Z,22.40
2017-07-30T02:48:17.880Z,22.30
2017-07-30T02:50:46.968Z,22.30
2017-07-30T02:53:15.300Z,22.30
2017-07-30T02:55:43.746Z,22.30
2017-07-30T02:58:12.043Z,22.30
2017-07-30T03:00:40.366Z,22.40
2017-07-30T03:03:08.671Z,22.40
2017-07-30T03:05:36.997Z,22.40
2017-07-30T03:08:05.312Z,22.40
2017-07-30T03:10:33.615Z,22.40
2017-07-30T03:13:01.923Z,22.40
2017-07-30T03:15:30.396Z,22.40
2017-07-30T03:17:58.790Z,22.40
2017-07-30T03:20:27.097Z,22.40
2017-07-30T03:22:55.443Z,22.40
2017-07-30T03:25:23.755Z,22.40
2017-07-30T03:27:52.071Z,22.40
2017-07-30T03:30:20.387Z,22.40
2017-07-30T03:32:49.614Z,22.40
2017-07-30T03:35:19.602Z,22.40
2017-07-30T03:37:48.002Z,22.30
2017-07-30T03:40:17.209Z,22.30
2017-07-30T03:42:47.071Z,22.30
2017-07-30T03:45:15.395Z,22.30
2017-07-30T03:47:44.444Z,22.30
2017-07-30T03:50:12.767Z,22.20
2017-07-30T03:52:41.071Z,22.40
2017-07-30T03:55:10.321Z,22.40
2017-07-30T03:57:38.624Z,22.40
2017-07-30T04:00:07.192Z,22.50
2017-07-30T04:02:36.291Z,22.40
2017-07-30T04:05:04.670Z,22.40
2017-07-30T04:07:33.041Z,22.40
2017-07-30T04:10:02.143Z,22.50
2017-07-30T04:12:30.519Z,22.50
2017-07-30T04:14:59.599Z,22.60
2017-07-30T04:17:28.701Z,22.70
2017-07-30T04:19:57.760Z,22.70
2017-07-30T04:22:26.294Z,22.70
2017-07-30T04:24:55.338Z,22.80
2017-07-30T04:27:23.659Z,22.70
2017-07-30T04:29:51.986Z,22.80
2017-07-30T04:32:20.347Z,22.80
2017-07-30T04:34:48.682Z,22.90
2017-07-30T04:37:17.778Z,22.90
2017-07-30T04:39:46.866Z,23.00
2017-07-30T04:42:15.954Z,23.00
2017-07-30T04:44:44.261Z,23.00
2017-07-30T04:47:12.610Z,23.00
2017-07-30T04:49:41.718Z,23.00
2017-07-30T04:52:10.794Z,23.10
2017-07-30T04:54:39.286Z,23.00
2017-07-30T04:57:07.594Z,23.10
2017-07-30T04:59:35.964Z,23.10
2017-07-30T05:02:04.280Z,23.20
2017-07-30T05:04:33.014Z,23.20
2017-07-30T05:07:02.525Z,23.30
2017-07-30T05:09:31.583Z,23.40
2017-07-30T05:12:00.696Z,23.50
2017-07-30T05:14:30.142Z,23.50
2017-07-30T05:16:58.490Z,23.50
2017-07-30T05:19:27.555Z,23.70
2017-07-30T05:21:56.011Z,23.60
2017-07-30T05:24:24.293Z,23.80
2017-07-30T05:26:52.606Z,23.90
2017-07-30T05:29:21.688Z,24.10
2017-07-30T05:31:49.999Z,24.10
2017-07-30T05:34:18.314Z,24.20
2017-07-30T05:36:46.614Z,24.20
2017-07-30T05:39:15.720Z,24.10
2017-07-30T05:41:44.002Z,24.10
2017-07-30T05:44:13.311Z,24.00
2017-07-30T05:46:41.610Z,24.00
2017-07-30T05:49:09.977Z,24.10
2017-07-30T05:51:38.335Z,24.20
2017-07-30T05:54:07.519Z,24.40
2017-07-30T05:56:36.624Z,24.60
2017-07-30T05:59:04.955Z,24.60
2017-07-30T06:01:33.378Z,24.70
2017-07-30T06:04:02.892Z,24.70
2017-07-30T06:06:32.085Z,24.80
2017-07-30T06:09:01.223Z,24.80
2017-07-30T06:11:29.541Z,24.70
2017-07-30T06:13:58.655Z,24.90
2017-07-30T06:16:27.087Z,24.90
2017-07-30T06:18:55.519Z,24.90
2017-07-30T06:21:24.571Z,25.00
2017-07-30T06:23:52.879Z,25.00
2017-07-30T06:26:21.963Z,25.20
2017-07-30T06:28:50.359Z,25.20
2017-07-30T06:31:18.675Z,25.40
2017-07-30T06:33:46.989Z,25.40
2017-07-30T06:36:15.279Z,25.60
2017-07-30T06:38:43.761Z,25.60
2017-07-30T06:41:12.952Z,25.70
2017-07-30T06:43:42.033Z,25.70
2017-07-30T06:46:10.338Z,25.70
2017-07-30T06:48:39.411Z,25.60
2017-07-30T06:51:07.726Z,25.60
2017-07-30T06:53:36.034Z,25.60
2017-07-30T06:56:04.343Z,25.60
2017-07-30T06:58:33.416Z,25.50
2017-07-30T07:01:01.940Z,25.50
2017-07-30T07:03:30.563Z,25.60
2017-07-30T07:05:58.865Z,25.60
2017-07-30T07:08:27.195Z,25.70
2017-07-30T07:10:55.560Z,25.70
2017-07-30T07:13:23.855Z,25.70
2017-07-30T07:15:52.211Z,25.60
2017-07-30T07:18:21.619Z,25.60
2017-07-30T07:20:49.930Z,25.50
2017-07-30T07:23:18.223Z,25.50
2017-07-30T07:25:46.646Z,25.40
2017-07-30T07:28:14.971Z,25.40
2017-07-30T07:30:43.276Z,25.40
2017-07-30T07:33:11.575Z,25.40
2017-07-30T07:35:41.075Z,25.40
2017-07-30T07:38:10.162Z,25.40
2017-07-30T07:40:39.286Z,25.70
2017-07-30T07:43:07.734Z,25.60
2017-07-30T07:45:36.813Z,26.20
2017-07-30T07:48:05.924Z,26.30
2017-07-30T07:50:34.356Z,26.30
2017-07-30T07:53:03.095Z,26.30
2017-07-30T07:55:32.161Z,26.20
2017-07-30T07:58:00.450Z,26.10
2017-07-30T08:00:29.553Z,25.90
2017-07-30T08:02:57.859Z,25.90
2017-07-30T08:05:26.188Z,25.90
2017-07-30T08:07:54.474Z,25.80
2017-07-30T08:10:22.782Z,25.70
2017-07-30T08:12:51.256Z,25.70
2017-07-30T08:15:20.549Z,25.70
2017-07-30T08:17:49.929Z,25.80
2017-07-30T08:20:18.254Z,25.80
2017-07-30T08:22:46.581Z,25.80
2017-07-30T08:25:14.867Z,25.90
2017-07-30T08:27:43.190Z,26.00
2017-07-30T08:30:11.539Z,26.10
2017-07-30T08:32:40.621Z,26.30
2017-07-30T08:35:09.684Z,26.40
2017-07-30T08:37:38.014Z,26.40
2017-07-30T08:40:06.332Z,26.60
2017-07-30T08:42:34.982Z,26.70
2017-07-30T08:45:03.333Z,26.70
2017-07-30T08:47:32.564Z,26.80
2017-07-30T08:50:01.121Z,26.80
2017-07-30T08:52:29.439Z,26.80
2017-07-30T08:54:58.194Z,26.80
2017-07-30T08:57:26.542Z,26.90
2017-07-30T08:59:55.656Z,27.10
2017-07-30T09:02:24.728Z,27.20
2017-07-30T09:04:53.027Z,27.20
2017-07-30T09:07:21.364Z,27.40
2017-07-30T09:09:49.655Z,27.50
2017-07-30T09:12:17.960Z,27.60
2017-07-30T09:14:46.282Z,27.50
2017-07-30T09:17:14.608Z,27.50
2017-07-30T09:19:43.208Z,27.50
2017-07-30T09:22:11.512Z,27.50
2017-07-30T09:24:39.815Z,27.50
2017-07-30T09:27:08.143Z,27.50
2017-07-30T09:29:36.442Z,27.60
2017-07-30T09:32:04.775Z,27.60
2017-07-30T09:34:33.077Z,27.70
2017-07-30T09:37:01.855Z,27.70
2017-07-30T09:39:30.174Z,27.70
2017-07-30T09:41:58.475Z,27.80
2017-07-30T09:44:27.602Z,27.80
2017-07-30T09:46:55.919Z,27.80
2017-07-30T09:49:24.250Z,27.90
2017-07-30T09:51:52.573Z,27.90
2017-07-30T09:54:21.238Z,27.90
2017-07-30T09:56:49.546Z,27.90
2017-07-30T09:59:17.859Z,28.00
2017-07-30T10:01:46.186Z,28.10
2017-07-30T10:04:14.528Z,28.10
2017-07-30T10:06:42.974Z,28.20
2017-07-30T10:09:11.298Z,28.30
2017-07-30T10:11:39.610Z,28.20
2017-07-30T10:14:07.951Z,28.20
2017-07-30T10:16:36.294Z,28.30
2017-07-30T10:19:04.648Z,28.20
2017-07-30T10:21:32.923Z,28.20
2017-07-30T10:24:01.412Z,28.20
2017-07-30T10:26:30.482Z,28.40
2017-07-30T10:28:58.810Z,28.40
2017-07-30T10:31:27.918Z,28.80
2017-07-30T10:33:56.246Z,28.70
2017-07-30T10:36:25.411Z,29.10
2017-07-30T10:38:53.722Z,29.10
2017-07-30T10:41:22.029Z,29.30
2017-07-30T10:43:50.358Z,29.20
2017-07-30T10:46:18.676Z,29.20
2017-07-30T10:48:46.990Z,29.40
2017-07-30T10:51:15.303Z,29.50
2017-07-30T10:53:43.592Z,29.50
2017-07-30T10:56:11.917Z,29.60
2017-07-30T10:58:40.217Z,29.70
2017-07-30T11:01:08.534Z,29.90
2017-07-30T11:03:36.966Z,29.90
2017-07-30T11:06:05.282Z,29.90
2017-07-30T11:08:33.674Z,29.90
2017-07-30T11:11:02.267Z,30.00
2017-07-30T11:13:30.554Z,30.00
2017-07-30T11:15:58.870Z,30.00
2017-07-30T11:18:27.167Z,30.00
2017-07-30T11:20:55.460Z,29.90
2017-07-30T11:23:24.527Z,30.00
2017-07-30T11:25:52.815Z,29.90
2017-07-30T11:28:22.008Z,30.00
2017-07-30T11:30:50.618Z,30.00
2017-07-30T11:33:18.927Z,30.10
2017-07-30T11:35:47.248Z,30.20
2017-07-30T11:38:15.551Z,30.30
2017-07-30T11:40:43.870Z,30.40
2017-07-30T11:43:12.171Z,30.40
2017-07-30T11:45:40.498Z,30.60
2017-07-30T11:48:08.835Z,30.60
2017-07-30T11:50:37.529Z,30.80
2017-07-30T11:53:06.580Z,30.80
2017-07-30T11:55:34.897Z,30.70
2017-07-30T11:58:03.207Z,30.70
2017-07-30T12:00:31.487Z,30.70
2017-07-30T12:02:59.784Z,30.90
2017-07-30T12:05:28.079Z,31.10
2017-07-30T12:07:56.423Z,31.20
2017-07-30T12:10:24.694Z,31.30
2017-07-30T12:12:53.127Z,31.50
2017-07-30T12:15:28.131Z,31.80
2017-07-30T12:17:56.438Z,31.80
2017-07-30T12:20:24.763Z,31.70
2017-07-30T12:22:53.062Z,31.50
2017-07-30T12:25:21.378Z,31.30
2017-07-30T12:27:49.682Z,31.10
2017-07-30T12:30:18.003Z,31.00
2017-07-30T12:32:46.291Z,31.00
2017-07-30T12:35:14.619Z,31.00
2017-07-30T12:37:42.891Z,31.00
2017-07-30T12:40:11.188Z,31.10
2017-07-30T12:42:39.490Z,31.00
2017-07-30T12:45:08.559Z,30.90
2017-07-30T12:47:36.909Z,30.80
2017-07-30T12:50:05.214Z,30.80
2017-07-30T12:52:33.528Z,30.80
2017-07-30T12:55:01.831Z,30.80
2017-07-30T12:57:30.162Z,30.90
2017-07-30T12:59:58.449Z,31.00
2017-07-30T13:02:28.705Z,31.10
2017-07-30T13:04:57.058Z,31.20
2017-07-30T13:07:26.167Z,31.40
2017-07-30T13:09:55.348Z,31.50
2017-07-30T13:12:24.404Z,31.40
2017-07-30T13:14:52.970Z,31.40
2017-07-30T13:17:21.301Z,31.30
2017-07-30T13:19:49.681Z,31.10
2017-07-30T13:22:18.751Z,30.90
2017-07-30T13:24:47.143Z,30.90
2017-07-30T13:27:16.229Z,31.00
2017-07-30T13:29:44.927Z,31.00
2017-07-30T13:32:13.215Z,31.10
2017-07-30T13:34:41.587Z,31.20
2017-07-30T13:37:10.703Z,31.20
2017-07-30T13:39:39.283Z,31.10
2017-07-30T13:42:07.622Z,31.30
2017-07-30T13:44:35.913Z,31.30
2017-07-30T13:47:05.111Z,31.40
2017-07-30T13:49:33.400Z,31.40
2017-07-30T13:52:01.768Z,31.60
2017-07-30T13:54:30.858Z,31.40
2017-07-30T13:56:59.926Z,31.30
2017-07-30T13:59:28.249Z,31.30
2017-07-30T14:01:56.551Z,31.40
2017-07-30T14:04:24.868Z,31.30
2017-07-30T14:06:53.153Z,31.20
2017-07-30T14:09:21.530Z,31.30
2017-07-30T14:11:49.863Z,31.40
2017-07-30T14:14:18.291Z,31.50
2017-07-30T14:16:46.591Z,31.50
2017-07-30T14:19:14.918Z,31.40
2017-07-30T14:21:43.238Z,31.40
2017-07-30T14:24:12.321Z,31.40
2017-07-30T14:26:40.675Z,31.40
2017-07-30T14:29:08.988Z,31.60
2017-07-30T14:31:38.172Z,31.70
2017-07-30T14:34:06.559Z,31.60
2017-07-30T14:36:35.062Z,31.80
2017-07-30T14:39:03.353Z,31.70
2017-07-30T14:41:31.669Z,31.60
2017-07-30T14:44:00.002Z,31.60
2017-07-30T14:46:28.293Z,31.50
2017-07-30T14:48:56.615Z,31.50
2017-07-30T14:51:24.913Z,31.20
2017-07-30T14:53:53.250Z,31.00
2017-07-30T14:56:21.608Z,30.90
2017-07-30T14:58:50.097Z,30.70
2017-07-30T15:01:18.404Z,30.60
2017-07-30T15:03:46.739Z,30.60
2017-07-30T15:06:15.046Z,30.50
2017-07-30T15:08:43.635Z,30.70
2017-07-30T15:11:11.941Z,30.90
2017-07-30T15:13:40.267Z,30.90
2017-07-30T15:16:08.667Z,30.80
2017-07-30T15:18:37.767Z,30.60
2017-07-30T15:21:06.855Z,30.60
2017-07-30T15:23:35.941Z,30.50
2017-07-30T15:26:04.252Z,30.50
2017-07-30T15:28:32.561Z,30.50
2017-07-30T15:31:01.093Z,30.40
2017-07-30T15:33:30.204Z,30.10
2017-07-30T15:35:58.514Z,30.10
2017-07-30T15:38:26.857Z,29.90
2017-07-30T15:40:55.151Z,29.90
2017-07-30T15:43:23.451Z,30.40
2017-07-30T15:45:51.763Z,30.80
2017-07-30T15:48:20.854Z,31.20
2017-07-30T15:50:49.954Z,31.20
2017-07-30T15:53:19.265Z,30.90
2017-07-30T15:55:47.566Z,30.80
2017-07-30T15:58:15.879Z,30.50
2017-07-30T16:00:44.196Z,30.30
2017-07-30T16:03:12.470Z,30.40
2017-07-30T16:05:41.570Z,31.20
2017-07-30T16:08:10.011Z,31.20
2017-07-30T16:10:38.615Z,31.20
2017-07-30T16:13:06.963Z,30.90
2017-07-30T16:15:35.263Z,31.20
2017-07-30T16:18:03.619Z,31.80
2017-07-30T16:20:32.727Z,32.60
2017-07-30T16:23:01.061Z,32.50
2017-07-30T16:25:29.397Z,32.70
2017-07-30T16:27:57.751Z,33.30
2017-07-30T16:30:26.047Z,33.90
2017-07-30T16:32:55.255Z,32.50
2017-07-30T16:35:24.319Z,31.90
2017-07-30T16:37:52.794Z,31.90
2017-07-30T16:40:21.911Z,32.70
2017-07-30T16:42:50.986Z,32.90
2017-07-30T16:45:19.330Z,32.90
2017-07-30T16:47:47.638Z,32.60
2017-07-30T16:50:15.958Z,31.80
2017-07-30T16:52:44.254Z,30.90
2017-07-30T16:55:12.598Z,30.40
2017-07-30T16:57:41.663Z,30.80
2017-07-30T17:00:10.187Z,30.70
2017-07-30T17:02:38.499Z,31.70
2017-07-30T17:05:06.813Z,31.70
2017-07-30T17:07:35.130Z,31.50
2017-07-30T17:10:03.459Z,31.20
2017-07-30T17:12:31.782Z,30.80
2017-07-30T17:15:00.084Z,30.30
2017-07-30T17:17:28.444Z,29.90
2017-07-30T17:19:56.762Z,29.60
2017-07-30T17:22:25.105Z,29.10
2017-07-30T17:24:53.375Z,29.10
2017-07-30T17:27:21.827Z,29.30
2017-07-30T17:29:50.132Z,29.30
2017-07-30T17:32:18.457Z,29.00
2017-07-30T17:34:46.859Z,28.80
2017-07-30T17:37:15.174Z,28.60
2017-07-30T17:39:43.517Z,28.70
2017-07-30T17:42:11.882Z,28.80
2017-07-30T17:44:40.184Z,28.80
2017-07-30T17:47:08.484Z,28.70
2017-07-30T17:49:36.827Z,28.60
2017-07-30T17:52:05.119Z,28.40
2017-07-30T17:54:33.457Z,28.20
2017-07-30T17:57:02.524Z,27.80
2017-07-30T17:59:30.951Z,27.70
2017-07-30T18:01:59.232Z,27.60
2017-07-30T18:04:27.551Z,27.40
2017-07-30T18:06:55.881Z,27.30
2017-07-30T18:09:24.199Z,27.10
2017-07-30T18:11:52.515Z,27.10
2017-07-30T18:14:21.586Z,27.10
2017-07-30T18:16:49.911Z,27.00
2017-07-30T18:19:18.224Z,27.10
2017-07-30T18:21:47.371Z,27.00
2017-07-30T18:24:15.726Z,26.90
2017-07-30T18:26:44.052Z,27.00
2017-07-30T18:29:12.358Z,26.90
2017-07-30T18:31:40.845Z,26.90
2017-07-30T18:34:09.165Z,26.90
2017-07-30T18:36:37.492Z,26.90
2017-07-30T18:39:05.807Z,26.90
2017-07-30T18:41:34.871Z,26.80
2017-07-30T18:44:03.390Z,26.80
2017-07-30T18:46:31.848Z,26.70
2017-07-30T18:49:00.154Z,26.70
2017-07-30T18:51:28.466Z,26.60
2017-07-30T18:53:56.780Z,26.50
2017-07-30T18:56:25.132Z,26.40
2017-07-30T18:58:53.447Z,26.30
2017-07-30T19:01:21.755Z,26.10
2017-07-30T19:03:50.070Z,26.10
2017-07-30T19:06:18.930Z,25.90
2017-07-30T19:08:47.263Z,25.80
2017-07-30T19:11:15.609Z,25.70
2017-07-30T19:13:43.940Z,25.60
2017-07-30T19:16:12.258Z,25.40
2017-07-30T19:18:40.721Z,25.30
2017-07-30T19:21:09.091Z,25.20
2017-07-30T19:23:37.410Z,25.00
2017-07-30T19:26:05.921Z,24.90
2017-07-30T19:28:34.980Z,24.80
2017-07-30T19:31:03.310Z,24.70
2017-07-30T19:33:31.675Z,24.70
2017-07-30T19:36:00.106Z,24.60
2017-07-30T19:38:28.406Z,24.60
2017-07-30T19:40:56.708Z,24.50
2017-07-30T19:43:25.050Z,24.60
2017-07-30T19:45:53.330Z,24.50
2017-07-30T19:48:21.651Z,24.60
2017-07-30T19:50:49.966Z,24.60
2017-07-30T19:53:19.344Z,24.50
2017-07-30T19:55:47.902Z,24.50
2017-07-30T19:58:16.475Z,24.50
2017-07-30T20:00:45.327Z,24.50
2017-07-30T20:03:13.626Z,24.40
2017-07-30T20:05:42.727Z,24.20
2017-07-30T20:08:11.010Z,24.20
2017-07-30T20:10:39.331Z,24.10
2017-07-30T20:13:07.658Z,24.10
2017-07-30T20:15:36.835Z,24.10
2017-07-30T20:18:05.929Z,24.00
2017-07-30T20:20:34.222Z,24.00
2017-07-30T20:23:02.608Z,24.00
2017-07-30T20:25:30.903Z,23.90
2017-07-30T20:27:59.261Z,23.70
2017-07-30T20:30:28.323Z,23.10
2017-07-30T20:32:56.654Z,23.10
2017-07-30T20:35:24.961Z,22.80
2017-07-30T20:37:53.239Z,22.60
2017-07-30T20:40:21.574Z,22.30
2017-07-30T20:42:49.887Z,22.10
2017-07-30T20:45:18.211Z,22.10
2017-07-30T20:47:46.514Z,21.90
2017-07-30T20:50:14.943Z,21.90
2017-07-30T20:52:43.221Z,21.80
2017-07-30T20:55:12.298Z,21.70
2017-07-30T20:57:40.632Z,21.70
2017-07-30T21:00:08.939Z,21.70
2017-07-30T21:02:37.280Z,21.70
2017-07-30T21:05:05.573Z,21.70
2017-07-30T21:07:33.900Z,21.70
2017-07-30T21:10:02.412Z,21.60
2017-07-30T21:12:30.991Z,21.60
2017-07-30T21:14:59.328Z,21.60
2017-07-30T21:17:27.640Z,21.60
2017-07-30T21:19:55.970Z,21.50
2017-07-30T21:22:24.291Z,21.50
2017-07-30T21:24:53.680Z,21.40
2017-07-30T21:27:21.999Z,21.40
2017-07-30T21:29:50.313Z,21.40
2017-07-30T21:32:18.648Z,21.40
2017-07-30T21:34:46.971Z,21.30
2017-07-30T21:37:15.305Z,21.30
2017-07-30T21:39:43.592Z,21.30
2017-07-30T21:42:12.032Z,21.20
2017-07-30T21:44:40.347Z,21.10
2017-07-30T21:47:08.651Z,21.10
2017-07-30T21:49:37.003Z,21.10
2017-07-30T21:52:05.322Z,21.00
2017-07-30T21:54:34.463Z,21.00
2017-07-30T21:57:02.751Z,20.90
2017-07-30T21:59:31.082Z,20.90
2017-07-30T22:02:00.145Z,20.80
2017-07-30T22:04:28.859Z,20.80
2017-07-30T22:06:57.192Z,20.80
2017-07-30T22:09:25.499Z,20.80
2017-07-30T22:11:53.821Z,20.80
2017-07-30T22:14:22.098Z,20.80
2017-07-30T22:16:50.425Z,20.80
2017-07-30T22:19:18.723Z,20.80
2017-07-30T22:21:47.056Z,20.80
2017-07-30T22:24:15.372Z,20.80
2017-07-30T22:26:44.448Z,20.80
2017-07-30T22:29:12.743Z,20.70
2017-07-30T22:31:41.042Z,20.70
2017-07-30T22:34:09.375Z,20.80
2017-07-30T22:36:37.679Z,20.70
2017-07-30T22:39:06.119Z,20.80
2017-07-30T22:41:34.426Z,20.80
2017-07-30T22:44:02.783Z,20.80
2017-07-30T22:46:31.083Z,20.80
2017-07-30T22:48:59.390Z,20.80
2017-07-30T22:51:27.737Z,20.70
2017-07-30T22:53:56.810Z,20.70
2017-07-30T22:56:25.142Z,20.70
2017-07-30T22:58:53.436Z,20.70
2017-07-30T23:01:21.774Z,20.60
2017-07-30T23:03:50.238Z,20.60
2017-07-30T23:06:19.314Z,20.50
2017-07-30T23:08:47.656Z,20.40
2017-07-30T23:11:15.938Z,20.40
2017-07-30T23:13:44.272Z,20.40
2017-07-30T23:16:12.659Z,20.40
2017-07-30T23:18:41.000Z,20.30
2017-07-30T23:21:09.310Z,20.30
2017-07-30T23:23:37.627Z,20.30
2017-07-30T23:26:05.946Z,20.30
2017-07-30T23:28:34.271Z,20.30
2017-07-30T23:31:03.842Z,20.30
2017-07-30T23:33:32.263Z,20.30
2017-07-30T23:36:00.586Z,20.30
2017-07-30T23:38:29.652Z,20.40
2017-07-30T23:40:57.967Z,20.30
2017-07-30T23:43:26.295Z,20.30
2017-07-30T23:45:54.601Z,20.30
2017-07-30T23:48:23.692Z,20.20
2017-07-30T23:50:51.982Z,20.20
2017-07-30T23:53:20.452Z,20.20
2017-07-30T23:55:49.520Z,20.20
2017-07-30T23:58:17.851Z,20.10
